Terminal Aerodrome Forecast
Issued by NWS Sioux Falls, SD

Home | Current Version | Previous Version | Text Only | Print | Product List | Glossary Off
Versions: 1 2 3 4 5 6 7 8 9 10 11 12 13 14 15 16 17 18 19 20

000
FTUS43 KFSD 240520
TAFHON
TAF
KHON 240520Z 2406/2506 33014KT P6SM OVC011
     FM241300 30008KT P6SM OVC009
     FM241700 24007KT P6SM BKN012
     FM241900 20007KT P6SM SCT012 BKN200
     FM250000 16009KT P6SM SCT100 OVC200=

USA.gov is the U.S. government's official web portal to all federal, state and local government web resources and services.